createdAt,value
2022-07-31T00:01:05.280Z,86.60
2022-07-31T00:04:08.146Z,86.70
2022-07-31T00:07:11.657Z,86.50
2022-07-31T00:10:15.879Z,86.50
2022-07-31T00:13:18.734Z,86.90
2022-07-31T00:16:41.661Z,86.90
2022-07-31T00:19:44.527Z,87.00
2022-07-31T00:22:50.471Z,87.30
2022-07-31T00:25:54.702Z,87.50
2022-07-31T00:28:57.591Z,87.90
2022-07-31T00:32:00.434Z,88.10
2022-07-31T00:35:03.331Z,88.00
2022-07-31T00:38:26.219Z,87.90
2022-07-31T00:41:40.366Z,87.90
2022-07-31T00:44:43.216Z,88.00
2022-07-31T00:47:50.621Z,87.80
2022-07-31T00:50:58.730Z,87.80
2022-07-31T00:54:01.583Z,87.60
2022-07-31T00:57:06.816Z,87.70
2022-07-31T01:00:11.341Z,88.20
2022-07-31T01:03:14.437Z,88.20
2022-07-31T01:06:17.383Z,87.70
2022-07-31T01:09:20.336Z,88.70
2022-07-31T01:12:32.507Z,88.90
2022-07-31T01:15:37.691Z,88.80
2022-07-31T01:18:41.645Z,89.20
2022-07-31T01:21:56.009Z,89.30
2022-07-31T01:25:08.669Z,90.00
2022-07-31T01:28:25.403Z,89.70
2022-07-31T01:31:37.015Z,89.30
2022-07-31T01:34:44.493Z,89.60
2022-07-31T01:37:51.540Z,89.80
2022-07-31T01:41:00.354Z,90.00
2022-07-31T01:44:05.520Z,90.00
2022-07-31T01:47:11.184Z,89.70
2022-07-31T01:50:42.816Z,90.20
2022-07-31T01:53:40.000Z,90.10
2022-07-31T01:56:44.539Z,89.90
2022-07-31T01:59:48.948Z,90.00
2022-07-31T02:02:54.509Z,89.70
2022-07-31T02:06:00.368Z,90.10
2022-07-31T02:09:06.676Z,89.90
2022-07-31T02:12:11.930Z,90.00
2022-07-31T02:15:17.567Z,89.80
2022-07-31T02:18:23.115Z,89.80
2022-07-31T02:21:26.433Z,89.60
2022-07-31T02:24:29.751Z,89.70
2022-07-31T02:27:53.673Z,89.70
2022-07-31T02:30:56.180Z,89.70
2022-07-31T02:34:00.915Z,89.60
2022-07-31T02:37:05.230Z,90.10
2022-07-31T02:40:10.456Z,89.70
2022-07-31T02:43:14.854Z,90.10
2022-07-31T02:46:19.305Z,89.30
2022-07-31T02:49:23.926Z,89.20
2022-07-31T02:52:27.009Z,89.50
2022-07-31T02:55:30.290Z,89.60
2022-07-31T02:58:33.224Z,89.20
2022-07-31T03:01:36.190Z,88.90
2022-07-31T03:04:40.539Z,88.90
2022-07-31T03:07:43.417Z,88.40
2022-07-31T03:10:47.138Z,88.00
2022-07-31T03:13:50.643Z,87.80
2022-07-31T03:16:54.675Z,88.10
2022-07-31T03:19:58.926Z,88.00
2022-07-31T03:23:03.021Z,87.90
2022-07-31T03:26:06.325Z,88.30
2022-07-31T03:29:42.517Z,87.70
2022-07-31T03:32:32.073Z,88.30
2022-07-31T03:35:39.267Z,88.90
2022-07-31T03:38:50.496Z,88.30
2022-07-31T03:41:55.891Z,88.10
2022-07-31T03:44:59.417Z,87.90
2022-07-31T03:48:02.779Z,87.90
2022-07-31T03:51:08.237Z,88.10
2022-07-31T03:54:11.181Z,87.60
2022-07-31T03:57:14.719Z,87.80
2022-07-31T04:00:18.095Z,88.30
2022-07-31T04:03:21.044Z,88.00
2022-07-31T04:06:25.245Z,89.00
2022-07-31T04:09:28.497Z,89.20
2022-07-31T04:12:31.423Z,89.40
2022-07-31T04:15:34.625Z,88.60
2022-07-31T04:18:37.477Z,89.00
2022-07-31T04:21:41.707Z,88.60
2022-07-31T04:24:44.576Z,88.20
2022-07-31T04:27:48.179Z,88.60
2022-07-31T04:30:51.722Z,88.60
2022-07-31T04:33:56.820Z,89.50
2022-07-31T04:37:01.343Z,88.90
2022-07-31T04:40:04.469Z,88.70
2022-07-31T04:43:07.379Z,89.10
2022-07-31T04:46:17.072Z,89.10
2022-07-31T04:49:20.869Z,89.00
2022-07-31T04:52:25.062Z,89.30
2022-07-31T04:55:27.907Z,89.30
2022-07-31T04:58:30.786Z,89.10
2022-07-31T05:01:34.131Z,89.10
2022-07-31T05:04:37.091Z,89.00
2022-07-31T05:07:41.405Z,89.50
2022-07-31T05:11:01.934Z,90.00
2022-07-31T05:14:07.868Z,89.60
2022-07-31T05:17:10.793Z,88.70
2022-07-31T05:20:13.703Z,88.60
2022-07-31T05:23:17.891Z,89.60
2022-07-31T05:26:21.181Z,89.90
2022-07-31T05:29:24.025Z,89.60
2022-07-31T05:32:26.897Z,88.80
2022-07-31T05:35:29.749Z,88.50
2022-07-31T05:38:34.142Z,87.20
2022-07-31T05:41:38.371Z,88.10
2022-07-31T05:44:42.724Z,88.10
2022-07-31T05:47:45.628Z,87.70
2022-07-31T05:50:50.377Z,88.70
2022-07-31T05:53:54.601Z,87.90
2022-07-31T05:56:57.494Z,88.50
2022-07-31T06:00:00.374Z,88.40
2022-07-31T06:03:07.268Z,88.80
2022-07-31T06:06:10.249Z,88.00
2022-07-31T06:09:14.541Z,88.90
2022-07-31T06:12:17.505Z,88.20
2022-07-31T06:15:20.417Z,88.60
2022-07-31T06:18:23.784Z,86.60
2022-07-31T06:21:30.615Z,85.70
2022-07-31T06:24:35.596Z,87.60
2022-07-31T06:27:42.062Z,87.30
2022-07-31T06:30:45.077Z,85.20
2022-07-31T06:33:48.895Z,86.00
2022-07-31T06:36:52.728Z,86.50
2022-07-31T06:39:57.010Z,87.60
2022-07-31T06:43:02.732Z,86.20
2022-07-31T06:46:13.931Z,86.40
2022-07-31T06:49:17.448Z,86.00
2022-07-31T06:52:20.862Z,87.60
2022-07-31T06:55:25.157Z,86.00
2022-07-31T06:58:28.248Z,86.50
2022-07-31T07:01:31.814Z,84.20
2022-07-31T07:05:05.536Z,85.00
2022-07-31T07:07:57.611Z,84.30
2022-07-31T07:11:01.833Z,84.90
2022-07-31T07:14:04.780Z,82.90
2022-07-31T07:17:08.018Z,82.30
2022-07-31T07:20:11.572Z,83.30
2022-07-31T07:23:14.448Z,83.10
2022-07-31T07:26:18.850Z,83.40
2022-07-31T07:29:21.792Z,84.80
2022-07-31T07:32:25.256Z,84.10
2022-07-31T07:35:33.818Z,84.00
2022-07-31T07:38:37.048Z,84.90
2022-07-31T07:41:41.868Z,84.90
2022-07-31T07:44:44.730Z,83.90
2022-07-31T07:47:53.903Z,82.90
2022-07-31T07:51:08.806Z,84.90
2022-07-31T07:54:11.785Z,82.40
2022-07-31T07:57:18.372Z,82.90
2022-07-31T08:00:21.465Z,82.40
2022-07-31T08:03:49.920Z,80.40
2022-07-31T08:06:47.403Z,80.60
2022-07-31T08:09:50.299Z,79.10
2022-07-31T08:12:55.056Z,80.50
2022-07-31T08:15:57.981Z,83.30
2022-07-31T08:19:01.326Z,81.10
2022-07-31T08:22:04.579Z,78.60
2022-07-31T08:25:14.413Z,78.80
2022-07-31T08:28:24.118Z,78.70
2022-07-31T08:31:27.130Z,81.50
2022-07-31T08:34:31.346Z,80.60
2022-07-31T08:37:51.691Z,79.10
2022-07-31T08:40:57.940Z,77.40
2022-07-31T08:44:04.327Z,78.00
2022-07-31T08:47:08.008Z,79.10
2022-07-31T08:50:13.899Z,78.10
2022-07-31T08:53:17.990Z,77.50
2022-07-31T08:56:21.876Z,75.60
2022-07-31T08:59:26.124Z,74.80
2022-07-31T09:02:29.058Z,77.40
2022-07-31T09:05:42.149Z,74.30
2022-07-31T09:08:46.136Z,73.60
2022-07-31T09:11:49.809Z,73.40
2022-07-31T09:14:54.031Z,75.00
2022-07-31T09:17:58.318Z,74.90
2022-07-31T09:21:04.542Z,75.60
2022-07-31T09:24:10.149Z,73.80
2022-07-31T09:27:14.526Z,72.90
2022-07-31T09:30:18.822Z,69.40
2022-07-31T09:33:22.616Z,68.20
2022-07-31T09:36:25.949Z,68.50
2022-07-31T09:39:29.836Z,66.60
2022-07-31T09:42:38.740Z,66.40
2022-07-31T09:45:58.717Z,63.60
2022-07-31T09:49:01.683Z,61.50
2022-07-31T09:52:04.890Z,61.00
2022-07-31T09:55:14.997Z,61.30
2022-07-31T09:58:19.966Z,60.60
2022-07-31T10:01:25.153Z,57.90
2022-07-31T10:04:28.523Z,58.10
2022-07-31T10:07:35.757Z,54.40
2022-07-31T10:10:39.156Z,53.60
2022-07-31T10:13:49.249Z,54.90
2022-07-31T10:16:59.941Z,51.60
2022-07-31T10:20:05.740Z,54.70
2022-07-31T10:23:16.111Z,55.10
2022-07-31T10:26:30.315Z,53.80
2022-07-31T10:29:42.600Z,54.30
2022-07-31T10:32:47.098Z,53.90
2022-07-31T10:35:58.844Z,54.00
2022-07-31T10:39:04.603Z,53.50
2022-07-31T10:42:13.398Z,53.20
2022-07-31T10:45:17.426Z,53.90
2022-07-31T10:48:22.102Z,54.00
2022-07-31T10:51:26.594Z,53.00
2022-07-31T10:54:40.291Z,51.30
2022-07-31T10:57:56.347Z,51.10
2022-07-31T11:01:08.029Z,51.80
2022-07-31T11:04:12.305Z,52.50
2022-07-31T11:07:20.070Z,52.80
2022-07-31T11:10:23.154Z,49.70
2022-07-31T11:13:33.756Z,52.40
2022-07-31T11:16:50.831Z,51.00
2022-07-31T11:19:55.319Z,51.60
2022-07-31T11:23:01.671Z,52.00
2022-07-31T11:26:07.718Z,51.90
2022-07-31T11:30:01.428Z,54.40
2022-07-31T11:32:34.676Z,51.60
2022-07-31T11:35:39.405Z,53.60
2022-07-31T11:38:47.485Z,52.40
2022-07-31T11:41:50.819Z,50.70
2022-07-31T11:44:54.608Z,51.30
2022-07-31T11:48:12.641Z,51.10
2022-07-31T11:51:30.969Z,50.50
2022-07-31T11:54:34.029Z,50.30
2022-07-31T11:57:50.928Z,51.80
2022-07-31T12:00:56.607Z,50.90
2022-07-31T12:04:07.650Z,50.80
2022-07-31T12:07:13.987Z,50.60
2022-07-31T12:10:17.316Z,51.80
2022-07-31T12:13:21.502Z,50.80
2022-07-31T12:16:24.384Z,49.70
2022-07-31T12:19:28.521Z,50.20
2022-07-31T12:22:33.155Z,50.70
2022-07-31T12:25:45.547Z,50.90
2022-07-31T12:28:58.196Z,50.10
2022-07-31T12:32:01.553Z,50.00
2022-07-31T12:35:06.105Z,49.00
2022-07-31T12:38:30.205Z,48.30
2022-07-31T12:41:43.291Z,49.40
2022-07-31T12:44:49.319Z,50.00
2022-07-31T12:47:54.860Z,49.40
2022-07-31T12:50:57.775Z,48.80
2022-07-31T12:54:04.629Z,47.20
2022-07-31T12:57:07.730Z,49.00
2022-07-31T13:00:12.325Z,49.90
2022-07-31T13:03:16.410Z,49.20
2022-07-31T13:06:19.300Z,49.70
2022-07-31T13:09:23.635Z,47.90
2022-07-31T13:12:26.527Z,46.90
2022-07-31T13:15:30.525Z,44.80
2022-07-31T13:18:35.554Z,44.10
2022-07-31T13:21:38.668Z,44.50
2022-07-31T13:24:53.973Z,45.50
2022-07-31T13:27:56.913Z,43.30
2022-07-31T13:30:59.815Z,41.60
2022-07-31T13:34:02.812Z,44.80
2022-07-31T13:37:06.129Z,45.50
2022-07-31T13:40:11.308Z,46.10
2022-07-31T13:43:14.572Z,46.00
2022-07-31T13:46:17.607Z,47.60
2022-07-31T13:49:20.656Z,48.50
2022-07-31T13:52:23.741Z,46.90
2022-07-31T13:55:27.993Z,46.20
2022-07-31T13:58:31.032Z,47.10
2022-07-31T14:02:04.734Z,45.60
2022-07-31T14:04:56.986Z,47.80
2022-07-31T14:08:32.831Z,47.10
2022-07-31T14:11:24.573Z,47.40
2022-07-31T14:14:27.470Z,46.80
2022-07-31T14:17:30.440Z,46.00
2022-07-31T14:20:34.423Z,45.50
2022-07-31T14:23:40.792Z,48.20
2022-07-31T14:26:45.267Z,46.00
2022-07-31T14:29:48.268Z,47.50
2022-07-31T14:32:51.136Z,46.40
2022-07-31T14:35:54.889Z,47.10
2022-07-31T14:38:58.321Z,46.60
2022-07-31T14:42:02.883Z,46.40
2022-07-31T14:45:07.083Z,46.50
2022-07-31T14:48:10.092Z,45.50
2022-07-31T14:51:18.551Z,45.50
2022-07-31T14:54:21.431Z,45.40
2022-07-31T14:57:25.675Z,46.60
2022-07-31T15:00:28.569Z,45.30
2022-07-31T15:03:32.229Z,44.50
2022-07-31T15:06:41.951Z,45.90
2022-07-31T15:09:58.202Z,45.10
2022-07-31T15:13:02.534Z,45.40
2022-07-31T15:16:06.074Z,45.70
2022-07-31T15:19:08.988Z,45.10
2022-07-31T15:22:16.947Z,45.30
2022-07-31T15:25:20.372Z,43.90
2022-07-31T15:28:24.669Z,45.20
2022-07-31T15:31:27.595Z,44.90
2022-07-31T15:34:32.618Z,46.00
2022-07-31T15:37:36.645Z,44.30
2022-07-31T15:40:39.647Z,45.50
2022-07-31T15:43:43.997Z,46.10
2022-07-31T15:46:47.059Z,46.20
2022-07-31T15:49:50.032Z,45.50
2022-07-31T15:52:53.308Z,45.20
2022-07-31T15:55:56.290Z,45.50
2022-07-31T15:59:01.362Z,44.80
2022-07-31T16:02:04.247Z,45.30
2022-07-31T16:05:11.987Z,45.40
2022-07-31T16:08:28.944Z,45.30
2022-07-31T16:12:03.538Z,47.90
2022-07-31T16:15:02.528Z,46.80
2022-07-31T16:18:05.861Z,47.10
2022-07-31T16:21:08.750Z,45.40
2022-07-31T16:24:11.637Z,45.70
2022-07-31T16:27:14.613Z,45.30
2022-07-31T16:30:19.055Z,46.10
2022-07-31T16:33:22.095Z,46.30
2022-07-31T16:36:24.977Z,46.70
2022-07-31T16:39:27.936Z,45.90
2022-07-31T16:42:30.857Z,46.10
2022-07-31T16:45:35.879Z,46.50
2022-07-31T16:48:38.724Z,47.00
2022-07-31T16:51:41.644Z,48.80
2022-07-31T16:54:45.287Z,46.40
2022-07-31T16:57:48.189Z,46.70
2022-07-31T17:00:52.678Z,46.90
2022-07-31T17:04:01.888Z,46.70
2022-07-31T17:07:06.477Z,47.00
2022-07-31T17:10:10.315Z,47.70
2022-07-31T17:13:13.190Z,47.00
2022-07-31T17:16:17.553Z,47.50
2022-07-31T17:19:36.658Z,48.50
2022-07-31T17:22:45.695Z,48.20
2022-07-31T17:25:56.358Z,48.30
2022-07-31T17:28:59.235Z,46.80
2022-07-31T17:32:03.545Z,47.30
2022-07-31T17:35:07.609Z,48.00
2022-07-31T17:38:16.259Z,48.20
2022-07-31T17:41:24.558Z,47.90
2022-07-31T17:44:28.082Z,49.70
2022-07-31T17:47:33.624Z,49.30
2022-07-31T17:50:36.992Z,49.70
2022-07-31T17:53:43.371Z,48.50
2022-07-31T17:56:57.885Z,48.90
2022-07-31T18:00:01.186Z,49.30
2022-07-31T18:03:05.660Z,49.70
2022-07-31T18:06:08.509Z,49.20
2022-07-31T18:09:11.360Z,51.10
2022-07-31T18:12:15.839Z,51.00
2022-07-31T18:15:19.155Z,50.70
2022-07-31T18:18:23.406Z,51.50
2022-07-31T18:21:26.268Z,50.70
2022-07-31T18:24:29.141Z,50.90
2022-07-31T18:27:32.097Z,50.70
2022-07-31T18:30:38.833Z,50.70
2022-07-31T18:33:43.443Z,51.70
2022-07-31T18:36:46.301Z,51.60
2022-07-31T18:39:49.482Z,52.10
2022-07-31T18:42:52.378Z,51.90
2022-07-31T18:45:55.255Z,53.00
2022-07-31T18:49:00.328Z,52.50
2022-07-31T18:52:03.998Z,53.20
2022-07-31T18:55:09.239Z,53.40
2022-07-31T18:58:12.182Z,54.10
2022-07-31T19:01:15.153Z,54.50
2022-07-31T19:04:19.395Z,54.80
2022-07-31T19:07:22.239Z,55.00
2022-07-31T19:10:29.120Z,55.50
2022-07-31T19:13:33.958Z,55.90
2022-07-31T19:16:37.117Z,56.00
2022-07-31T19:19:54.627Z,54.00
2022-07-31T19:22:58.167Z,56.50
2022-07-31T19:26:03.604Z,54.90
2022-07-31T19:29:07.484Z,55.50
2022-07-31T19:32:11.486Z,56.10
2022-07-31T19:35:15.691Z,56.30
2022-07-31T19:38:18.563Z,56.70
2022-07-31T19:41:21.756Z,56.70
2022-07-31T19:44:24.627Z,55.40
2022-07-31T19:47:27.576Z,55.30
2022-07-31T19:50:31.841Z,56.50
2022-07-31T19:53:34.803Z,56.80
2022-07-31T19:56:37.712Z,57.20
2022-07-31T19:59:40.671Z,58.00
2022-07-31T20:02:44.445Z,57.50
2022-07-31T20:05:48.637Z,57.10
2022-07-31T20:08:51.559Z,57.60
2022-07-31T20:11:54.467Z,57.60
2022-07-31T20:14:57.327Z,57.90
2022-07-31T20:18:00.201Z,58.30
2022-07-31T20:21:07.180Z,58.90
2022-07-31T20:24:11.430Z,59.80
2022-07-31T20:27:14.353Z,58.60
2022-07-31T20:30:21.670Z,59.30
2022-07-31T20:33:24.725Z,59.40
2022-07-31T20:36:29.074Z,58.90
2022-07-31T20:39:33.374Z,59.50
2022-07-31T20:42:36.872Z,59.20
2022-07-31T20:45:41.551Z,57.00
2022-07-31T20:48:45.280Z,57.20
2022-07-31T20:51:52.041Z,58.10
2022-07-31T20:54:54.892Z,58.80
2022-07-31T20:57:57.764Z,57.20
2022-07-31T21:01:00.713Z,57.30
2022-07-31T21:04:03.603Z,58.10
2022-07-31T21:07:08.575Z,57.70
2022-07-31T21:10:12.560Z,58.00
2022-07-31T21:13:17.709Z,58.40
2022-07-31T21:16:20.561Z,59.20
2022-07-31T21:19:23.425Z,59.00
2022-07-31T21:22:27.609Z,59.70
2022-07-31T21:25:31.459Z,60.30
2022-07-31T21:28:35.091Z,59.40
2022-07-31T21:31:48.937Z,59.80
2022-07-31T21:34:53.524Z,61.30
2022-07-31T21:37:58.790Z,61.20
2022-07-31T21:41:02.313Z,60.80
2022-07-31T21:44:06.321Z,60.60
2022-07-31T21:47:14.308Z,61.40
2022-07-31T21:50:28.617Z,62.10
2022-07-31T21:53:33.707Z,62.00
2022-07-31T21:56:36.591Z,62.30
2022-07-31T21:59:39.461Z,63.00
2022-07-31T22:02:42.337Z,63.20
2022-07-31T22:06:02.827Z,63.50
2022-07-31T22:09:07.112Z,63.90
2022-07-31T22:12:10.362Z,63.80
2022-07-31T22:15:15.655Z,64.60
2022-07-31T22:18:19.193Z,64.50
2022-07-31T22:21:23.218Z,65.00
2022-07-31T22:24:28.136Z,65.40
2022-07-31T22:27:48.677Z,65.90
2022-07-31T22:30:51.770Z,65.30
2022-07-31T22:33:55.008Z,65.30
2022-07-31T22:36:58.932Z,64.70
2022-07-31T22:40:04.500Z,64.70
2022-07-31T22:44:09.318Z,64.20
2022-07-31T22:46:32.470Z,64.40
2022-07-31T22:49:36.502Z,63.70
2022-07-31T22:52:40.049Z,62.60
2022-07-31T22:55:44.341Z,61.70
2022-07-31T22:58:47.205Z,61.30
2022-07-31T23:01:50.088Z,61.20
2022-07-31T23:04:53.102Z,61.00
2022-07-31T23:07:55.967Z,61.00
2022-07-31T23:11:00.178Z,59.90
2022-07-31T23:14:03.029Z,59.90
2022-07-31T23:17:05.942Z,59.90
2022-07-31T23:20:10.241Z,60.00
2022-07-31T23:23:13.089Z,60.30
2022-07-31T23:26:17.992Z,60.60
2022-07-31T23:29:20.861Z,60.30
2022-07-31T23:32:23.707Z,59.80
2022-07-31T23:35:26.541Z,60.00
2022-07-31T23:38:29.369Z,59.80
2022-07-31T23:41:51.013Z,61.20
2022-07-31T23:44:53.884Z,60.70
2022-07-31T23:47:58.999Z,60.90
2022-07-31T23:51:02.800Z,61.40
2022-07-31T23:54:06.117Z,61.80
2022-07-31T23:57:10.376Z,62.20
